Time;durP1;ratioP1;P1;durP2;ratioP2;P2;SDS_P1;SDS_P2;PMS_P1;PMS_P2;Temp;Humidity;BMP_temperature;BMP_pressure;BME280_temperature;BME280_humidity;BME280_pressure;Samples;Min_cycle;Max_cycle;Signal;HPM_P1;HPM_P2
2021/03/03 00:04:49;;;;;;;43.83;26.53;;;;;;;0.53;100.00;102144.72;20778578;28;20482;-69
2021/03/03 00:14:49;;;;;;;45.07;27.60;;;;;;;0.56;100.00;102125.47;20783664;28;20223;-68
2021/03/03 00:24:50;;;;;;;48.47;28.20;;;;;;;0.54;100.00;102093.06;20772030;28;20482;-64
2021/03/03 00:34:50;;;;;;;48.53;30.03;;;;;;;0.71;100.00;102120.31;20733892;28;20321;-64
2021/03/03 00:44:50;;;;;;;41.70;27.10;;;;;;;0.68;100.00;102120.28;20800759;28;20221;-66
2021/03/03 00:54:51;;;;;;;43.77;27.80;;;;;;;0.75;100.00;102129.06;20792844;28;20239;-63
2021/03/03 01:04:51;;;;;;;39.73;24.97;;;;;;;0.75;100.00;102122.06;20813964;28;20236;-63
2021/03/03 01:14:52;;;;;;;41.13;23.53;;;;;;;0.77;100.00;102103.69;20798750;28;20289;-67
2021/03/03 01:24:52;;;;;;;40.27;24.17;;;;;;;0.74;100.00;102099.28;20804545;28;20350;-65
2021/03/03 01:34:53;;;;;;;34.65;19.75;;;;;;;0.77;100.00;102088.81;20804383;28;20271;-67
2021/03/03 01:44:53;;;;;;;38.47;22.13;;;;;;;0.82;100.00;102087.09;20796634;28;20224;-68
2021/03/03 01:54:54;;;;;;;62.43;25.43;;;;;;;0.74;100.00;102067.75;20808911;28;20248;-69
2021/03/03 02:04:54;;;;;;;38.47;21.23;;;;;;;0.56;100.00;102046.69;20789906;28;20220;-73
2021/03/03 02:14:58;;;;;;;32.93;18.17;;;;;;;0.46;100.00;102045.75;20798171;28;20216;-71
2021/03/03 02:25:29;;;;;;;45.80;22.03;;;;;;;0.43;100.00;102039.63;20775271;28;20974;-71
2021/03/03 02:35:30;;;;;;;45.80;18.90;;;;;;;0.58;100.00;102060.72;20795260;28;20220;-69
2021/03/03 02:45:30;;;;;;;53.23;20.37;;;;;;;0.55;100.00;102056.31;20777835;28;20226;-67
2021/03/03 02:55:31;;;;;;;47.23;20.13;;;;;;;0.60;100.00;102051.09;20789028;28;20339;-71
2021/03/03 03:05:34;;;;;;;78.90;25.43;;;;;;;0.58;100.00;102042.31;20783161;28;20220;-70
2021/03/03 03:15:34;;;;;;;86.57;25.80;;;;;;;0.64;100.00;102056.34;20780968;28;20255;-67
2021/03/03 03:25:36;;;;;;;101.77;31.03;;;;;;;0.65;100.00;102051.97;20780648;28;20317;-67
2021/03/03 03:35:38;;;;;;;63.10;25.43;;;;;;;0.47;100.00;102050.16;20751782;28;20226;-63
2021/03/03 03:45:38;;;;;;;50.17;22.17;;;;;;;0.49;100.00;102040.50;20794274;28;20224;-62
2021/03/03 03:55:39;;;;;;;87.83;24.20;;;;;;;0.45;100.00;102038.75;20770006;28;20294;-62
2021/03/03 04:05:39;;;;;;;86.63;26.13;;;;;;;0.31;100.00;102022.06;20769571;28;20539;-65
2021/03/03 04:15:40;;;;;;;94.63;30.43;;;;;;;0.19;100.00;102030.75;20791575;28;20220;-67
2021/03/03 04:25:41;;;;;;;75.20;24.05;;;;;;;0.30;100.00;102036.94;20815557;28;20220;-71
2021/03/03 04:35:41;;;;;;;61.30;22.47;;;;;;;0.24;100.00;102010.63;20811186;28;20220;-72
2021/03/03 04:45:42;;;;;;;79.80;24.65;;;;;;;0.31;100.00;102009.81;20798067;28;20817;-70
2021/03/03 04:55:43;;;;;;;88.10;29.90;;;;;;;0.23;100.00;102000.16;20789751;28;20854;-71
2021/03/03 05:05:43;;;;;;;98.17;31.60;;;;;;;0.21;100.00;102001.88;20774940;28;20682;-71
2021/03/03 05:15:44;;;;;;;105.37;34.80;;;;;;;0.19;100.00;101996.63;20819145;28;20310;-63
2021/03/03 05:25:44;;;;;;;172.27;41.77;;;;;;;0.13;100.00;101999.19;20796657;28;20972;-63
2021/03/03 05:35:45;;;;;;;164.57;38.30;;;;;;;0.20;100.00;102008.88;20817862;28;20213;-67
2021/03/03 05:45:46;;;;;;;216.50;40.73;;;;;;;0.31;100.00;102008.94;20787131;28;20228;-66
2021/03/03 05:55:47;;;;;;;93.53;29.33;;;;;;;0.13;100.00;101978.19;20794825;28;20315;-62
2021/03/03 06:05:48;;;;;;;72.10;23.23;;;;;;;0.28;100.00;102014.16;20781999;28;20216;-62
2021/03/03 06:15:49;;;;;;;82.03;24.60;;;;;;;0.28;100.00;101999.28;20784373;28;20290;-61
2021/03/03 06:26:08;;;;;;;46.73;17.60;;;;;;;0.30;100.00;102001.91;20808849;28;20216;-65
2021/03/03 06:36:22;;;;;;;76.03;23.83;;;;;;;0.41;100.00;101999.31;20796117;28;20236;-63
2021/03/03 06:46:23;;;;;;;70.00;24.37;;;;;;;0.50;100.00;101994.09;20796267;28;20216;-58
2021/03/03 06:56:40;;;;;;;62.23;24.67;;;;;;;0.49;100.00;101982.72;20730033;28;20233;-59
2021/03/03 07:06:49;;;;;;;39.60;17.23;;;;;;;0.52;100.00;101960.84;20750760;28;20220;-64
2021/03/03 07:17:04;;;;;;;34.43;16.80;;;;;;;0.92;100.00;101954.81;20730030;28;20228;-65
2021/03/03 07:27:05;;;;;;;47.23;21.40;;;;;;;1.05;100.00;101953.97;20702523;28;20233;-63
2021/03/03 07:37:06;;;;;;;33.60;17.00;;;;;;;1.13;100.00;101934.69;20730766;28;21027;-61
2021/03/03 07:47:08;;;;;;;45.23;19.53;;;;;;;1.51;100.00;101948.69;20712262;28;21046;-64
2021/03/03 07:57:09;;;;;;;29.97;16.07;;;;;;;1.89;100.00;101942.50;20716946;28;20225;-62
2021/03/03 08:07:21;;;;;;;39.10;17.60;;;;;;;2.12;100.00;101932.75;20683983;28;20309;-62
2021/03/03 08:17:26;;;;;;;47.07;22.20;;;;;;;2.32;100.00;101941.44;20716630;28;20235;-62
2021/03/03 08:27:38;;;;;;;34.23;19.17;;;;;;;2.57;100.00;101928.13;20709241;28;20240;-59
2021/03/03 08:37:39;;;;;;;29.33;16.67;;;;;;;3.06;100.00;101915.50;20745604;28;20230;-56
2021/03/03 08:47:52;;;;;;;26.77;15.77;;;;;;;3.26;100.00;101908.28;20779647;28;20719;-62
2021/03/03 08:57:59;;;;;;;28.57;17.90;;;;;;;3.38;100.00;101850.13;20791245;28;20224;-65
2021/03/03 09:07:59;;;;;;;32.27;19.60;;;;;;;3.50;99.69;101870.28;20788720;28;20242;-65
2021/03/03 09:18:00;;;;;;;42.10;23.85;;;;;;;3.53;99.13;101855.25;20770285;28;20327;-61
2021/03/03 09:28:01;;;;;;;30.15;19.20;;;;;;;3.80;100.00;101858.47;20682869;28;20231;-67
2021/03/03 09:38:02;;;;;;;33.77;21.20;;;;;;;4.16;98.84;101843.94;20728704;28;20220;-64
2021/03/03 09:48:02;;;;;;;39.37;23.13;;;;;;;4.59;96.39;101846.81;20790537;28;20227;-59
2021/03/03 09:58:03;;;;;;;34.43;21.50;;;;;;;4.55;97.59;101846.00;20795634;28;20239;-57
2021/03/03 10:08:09;;;;;;;39.57;24.47;;;;;;;4.89;95.62;101841.06;20795963;28;20234;-57
2021/03/03 10:18:11;;;;;;;37.17;24.87;;;;;;;5.13;94.85;101834.47;20709485;28;20423;-56
2021/03/03 10:28:17;;;;;;;37.93;24.87;;;;;;;5.23;94.51;101820.16;20732559;28;20555;-56
2021/03/03 10:38:20;;;;;;;33.43;20.93;;;;;;;5.62;93.96;101817.66;20717855;28;20217;-62
2021/03/03 10:48:30;;;;;;;31.17;21.77;;;;;;;6.16;92.45;101793.63;20740949;28;20720;-58
2021/03/03 10:58:38;;;;;;;29.47;22.50;;;;;;;6.43;90.19;101779.69;20742496;28;20275;-60
2021/03/03 11:08:38;;;;;;;28.77;19.97;;;;;;;6.64;90.88;101760.59;20730397;28;20251;-58
2021/03/03 11:18:39;;;;;;;33.53;23.70;;;;;;;6.90;90.23;101741.34;20744937;28;21126;-58
2021/03/03 11:28:40;;;;;;;30.27;23.30;;;;;;;7.26;87.95;101728.88;20740456;28;20230;-57
2021/03/03 11:38:42;;;;;;;30.43;23.13;;;;;;;7.31;87.89;101721.66;20689118;28;20231;-59
2021/03/03 11:48:42;;;;;;;37.97;29.57;;;;;;;7.40;87.17;101699.28;20651754;28;20975;-57
2021/03/03 11:58:43;;;;;;;40.80;31.60;;;;;;;7.39;87.68;101670.97;20670489;28;20339;-57
2021/03/03 12:08:43;;;;;;;41.83;32.43;;;;;;;7.77;87.10;101657.41;20651651;28;20220;-65
2021/03/03 12:18:44;;;;;;;51.90;34.87;;;;;;;8.26;85.70;101656.69;20669976;28;20219;-57
2021/03/03 12:28:44;;;;;;;37.27;28.70;;;;;;;8.70;85.31;101643.66;20656349;28;20220;-58
2021/03/03 12:38:45;;;;;;;39.97;31.57;;;;;;;8.84;84.70;101624.53;20680864;28;20236;-58
2021/03/03 12:48:45;;;;;;;38.60;29.73;;;;;;;8.91;83.98;101610.97;20676524;28;20937;-64
2021/03/03 12:58:45;;;;;;;38.13;28.87;;;;;;;8.54;83.72;101581.28;20670492;28;21072;-60
2021/03/03 13:08:46;;;;;;;40.43;31.97;;;;;;;8.09;84.26;101565.97;20674150;28;20407;-57
2021/03/03 13:18:48;;;;;;;42.83;32.70;;;;;;;7.78;86.15;101549.31;20652747;28;20220;-60
2021/03/03 13:28:49;;;;;;;41.03;31.93;;;;;;;7.63;88.17;101536.53;20678462;28;20853;-59
2021/03/03 13:38:49;;;;;;;48.83;34.23;;;;;;;7.67;88.14;101522.22;20649764;28;20338;-56
2021/03/03 13:48:50;;;;;;;54.93;38.77;;;;;;;7.78;89.09;101520.09;20675626;28;20325;-59
2021/03/03 13:58:50;;;;;;;42.30;32.30;;;;;;;7.97;87.57;101500.78;20691909;28;20892;-58
2021/03/03 14:08:51;;;;;;;46.73;34.47;;;;;;;8.12;88.24;101478.13;20686732;28;20291;-59
2021/03/03 14:18:51;;;;;;;41.93;30.87;;;;;;;8.26;87.64;101449.25;20662646;28;20276;-60
2021/03/03 14:28:52;;;;;;;43.97;32.30;;;;;;;8.25;86.39;101428.91;20650509;28;20462;-59
2021/03/03 14:38:52;;;;;;;46.93;31.07;;;;;;;8.17;86.49;101412.38;20632107;28;20232;-56
2021/03/03 14:48:53;;;;;;;43.67;32.67;;;;;;;8.13;86.19;101400.09;20620961;28;20252;-57
2021/03/03 14:58:54;;;;;;;43.37;29.50;;;;;;;8.06;85.59;101377.34;20674080;28;20713;-58
2021/03/03 15:08:55;;;;;;;27.70;20.90;;;;;;;7.97;86.17;101364.38;20684461;28;20538;-57
2021/03/03 15:18:55;;;;;;;31.50;22.07;;;;;;;7.77;86.70;101335.88;20789641;28;20226;-57
2021/03/03 15:28:56;;;;;;;35.67;25.63;;;;;;;7.52;87.55;101319.09;20786452;28;20713;-59
2021/03/03 15:38:56;;;;;;;23.97;18.03;;;;;;;7.21;87.53;101295.41;20780285;28;20267;-57
2021/03/03 15:48:57;;;;;;;23.90;17.30;;;;;;;6.85;88.71;101284.25;20765149;28;21225;-58
2021/03/03 15:58:59;;;;;;;26.83;18.87;;;;;;;6.45;90.27;101276.72;20730251;28;20221;-63
2021/03/03 16:09:00;;;;;;;41.67;27.83;;;;;;;5.96;92.12;101272.94;20716768;28;20220;-64
2021/03/03 16:19:01;;;;;;;41.07;28.43;;;;;;;5.41;93.54;101253.34;20717703;28;20220;-62
2021/03/03 16:29:03;;;;;;;45.63;28.43;;;;;;;4.81;95.79;101245.28;20799099;28;20228;-63
2021/03/03 16:39:04;;;;;;;47.27;32.03;;;;;;;4.41;98.65;101237.47;20744406;28;20234;-62
2021/03/03 16:49:05;;;;;;;71.27;43.23;;;;;;;4.23;100.00;101236.13;20796731;28;20231;-63
2021/03/03 16:59:05;;;;;;;81.33;47.33;;;;;;;3.97;100.00;101217.41;20755095;28;20230;-59
2021/03/03 17:09:13;;;;;;;95.53;54.80;;;;;;;3.84;100.00;101215.94;20793206;28;20483;-60
2021/03/03 17:19:14;;;;;;;99.73;56.53;;;;;;;3.58;100.00;101198.91;20755904;28;20226;-59
2021/03/03 17:29:14;;;;;;;87.53;49.53;;;;;;;3.32;100.00;101180.09;20801038;28;20227;-60
2021/03/03 17:39:15;;;;;;;135.87;69.57;;;;;;;3.21;100.00;101167.16;20801587;28;20233;-60
2021/03/03 17:49:15;;;;;;;171.07;89.50;;;;;;;3.14;100.00;101133.03;20866889;28;20609;-60
2021/03/03 17:59:16;;;;;;;184.45;88.15;;;;;;;3.04;100.00;101127.06;20887913;28;20467;-60
2021/03/03 18:09:17;;;;;;;123.68;62.85;;;;;;;2.71;100.00;101112.78;20869173;28;20273;-72
2021/03/03 18:19:18;;;;;;;77.97;44.77;;;;;;;2.47;100.00;101085.16;20865302;28;20232;-61
2021/03/03 18:29:18;;;;;;;103.30;59.25;;;;;;;2.45;100.00;101073.75;20789745;28;20870;-65
2021/03/03 18:39:18;;;;;;;95.37;53.33;;;;;;;2.42;100.00;101057.13;20804254;28;20351;-61
2021/03/03 18:49:26;;;;;;;76.23;45.37;;;;;;;2.19;100.00;101033.88;20791019;28;20220;-60
2021/03/03 18:59:26;;;;;;;63.37;37.73;;;;;;;1.92;100.00;101019.47;20793991;28;20323;-60
2021/03/03 19:09:27;;;;;;;61.83;35.10;;;;;;;1.72;100.00;100985.59;20799795;28;20212;-61
2021/03/03 19:19:28;;;;;;;78.43;43.67;;;;;;;1.65;100.00;100993.63;20787117;28;20220;-60
2021/03/03 19:29:28;;;;;;;71.97;43.33;;;;;;;1.67;100.00;100958.53;20802403;28;20231;-62
2021/03/03 19:39:29;;;;;;;75.80;40.67;;;;;;;1.69;100.00;100961.97;20781201;28;20224;-62
2021/03/03 19:49:29;;;;;;;68.90;39.08;;;;;;;1.60;100.00;100954.25;20797101;28;20460;-61
2021/03/03 19:59:30;;;;;;;73.55;40.33;;;;;;;1.46;100.00;100924.69;20763068;28;20224;-60
2021/03/03 20:09:30;;;;;;;61.30;35.60;;;;;;;1.43;100.00;100911.59;20799422;28;20220;-60
2021/03/03 20:19:31;;;;;;;64.67;36.10;;;;;;;1.31;100.00;100899.53;20765501;28;20467;-56
2021/03/03 20:29:31;;;;;;;70.43;37.87;;;;;;;1.23;100.00;100880.38;20732629;28;20337;-63
2021/03/03 20:39:32;;;;;;;77.63;40.00;;;;;;;1.04;100.00;100843.03;20735937;28;20220;-64
2021/03/03 20:49:33;;;;;;;87.22;44.38;;;;;;;1.00;100.00;100837.84;20749546;28;20706;-57
2021/03/03 20:59:33;;;;;;;84.73;43.07;;;;;;;0.75;100.00;100792.72;20810074;28;20221;-57
2021/03/03 21:09:34;;;;;;;74.77;40.80;;;;;;;0.76;100.00;100809.38;20791193;28;20303;-58
2021/03/03 21:19:34;;;;;;;78.40;41.55;;;;;;;0.69;100.00;100800.72;20813723;28;20823;-58
2021/03/03 21:29:35;;;;;;;75.17;38.40;;;;;;;0.65;100.00;100785.91;20793568;28;20212;-68
2021/03/03 21:39:36;;;;;;;76.23;41.17;;;;;;;0.48;100.00;100782.69;20811447;28;20230;-58
2021/03/03 21:49:37;;;;;;;65.40;35.63;;;;;;;0.27;100.00;100766.38;20780129;28;20223;-62
2021/03/03 21:59:37;;;;;;;81.50;42.40;;;;;;;0.14;100.00;100748.19;20803253;28;20220;-66
2021/03/03 22:09:38;;;;;;;69.20;37.20;;;;;;;0.11;100.00;100720.28;20800479;28;20835;-67
2021/03/03 22:19:40;;;;;;;71.03;36.30;;;;;;;-0.02;100.00;100695.97;20778113;28;20286;-62
2021/03/03 22:29:40;;;;;;;74.43;37.70;;;;;;;0.15;100.00;100706.19;20806955;28;20212;-60
2021/03/03 22:39:41;;;;;;;67.67;35.03;;;;;;;0.14;100.00;100677.34;20787077;28;20298;-58
2021/03/03 22:49:41;;;;;;;83.57;42.80;;;;;;;0.12;100.00;100663.41;20805995;28;20455;-59
2021/03/03 22:59:42;;;;;;;137.73;55.77;;;;;;;0.00;100.00;100640.88;20765057;28;20274;-58
2021/03/03 23:09:42;;;;;;;152.63;68.93;;;;;;;0.42;100.00;100647.13;20805296;28;20216;-57
2021/03/03 23:19:43;;;;;;;103.07;54.88;;;;;;;0.51;100.00;100635.59;20787762;28;20216;-58
2021/03/03 23:29:43;;;;;;;115.10;54.67;;;;;;;0.52;100.00;100637.34;20798361;28;20292;-58
2021/03/03 23:39:44;;;;;;;91.80;49.47;;;;;;;0.80;100.00;100622.81;20793869;28;20223;-57
2021/03/03 23:49:44;;;;;;;89.83;50.33;;;;;;;1.10;100.00;100610.78;20790774;28;20462;-59
2021/03/03 23:59:44;;;;;;;85.77;50.07;;;;;;;1.39;100.00;100587.38;20800405;28;20305;-58
